Time;durP1;ratioP1;P1;durP2;ratioP2;P2;SDS_P1;SDS_P2;PMS_P1;PMS_P2;Temp;Humidity;BMP_temperature;BMP_pressure;BME280_temperature;BME280_humidity;BME280_pressure;Samples;Min_cycle;Max_cycle;Signal;HPM_P1;HPM_P2
2021/06/17 00:01:49;;;;;;;7.93;6.53;;;22.50;55.50;22.00;101007.00;;;;5037962;28;20124;-66
2021/06/17 00:04:15;;;;;;;8.82;6.00;;;22.50;55.60;22.00;101000.00;;;;5041486;28;20045;-67
2021/06/17 00:06:41;;;;;;;7.40;6.20;;;22.40;56.00;22.00;101002.00;;;;5038225;28;20048;-67
2021/06/17 00:09:08;;;;;;;7.28;6.55;;;22.40;56.00;21.90;101007.00;;;;5041153;28;20040;-67
2021/06/17 00:11:34;;;;;;;8.23;6.65;;;22.40;56.00;21.90;100999.00;;;;5039712;28;20038;-67
2021/06/17 00:14:00;;;;;;;9.57;7.55;;;22.40;56.40;21.90;101000.00;;;;5038860;28;20043;-66
2021/06/17 00:16:27;;;;;;;17.57;8.40;;;22.30;57.80;21.90;100989.00;;;;5049193;28;20061;-66
2021/06/17 00:18:52;;;;;;;9.38;8.18;;;22.30;56.40;21.80;100994.00;;;;5040342;28;20299;-67
2021/06/17 00:21:18;;;;;;;9.90;8.23;;;22.30;56.70;21.80;100985.00;;;;5040373;28;20037;-66
2021/06/17 00:23:44;;;;;;;11.57;8.20;;;22.30;56.80;21.80;100988.00;;;;5039677;28;20052;-67
2021/06/17 00:26:10;;;;;;;11.00;8.50;;;22.20;57.00;21.80;100988.00;;;;5040388;28;20032;-66
2021/06/17 00:28:36;;;;;;;10.95;9.05;;;22.20;57.00;21.70;100992.00;;;;5038305;28;20045;-66
2021/06/17 00:31:03;;;;;;;11.00;8.67;;;22.10;57.20;21.70;100992.00;;;;5039873;28;20045;-66
2021/06/17 00:33:29;;;;;;;8.52;7.60;;;22.10;57.50;21.70;100984.00;;;;5018707;28;20586;-66
2021/06/17 00:35:55;;;;;;;11.00;9.17;;;22.10;57.50;21.70;100989.00;;;;5039686;28;20029;-66
2021/06/17 00:38:21;;;;;;;10.18;8.68;;;22.10;57.70;21.70;100984.00;;;;5033668;28;21563;-66
2021/06/17 00:40:51;;;;;;;10.68;8.50;;;22.10;57.70;21.70;100997.00;;;;5036232;28;20041;-66
2021/06/17 00:43:16;;;;;;;12.88;8.88;;;22.10;57.90;21.60;100990.00;;;;5040590;28;20047;-67
2021/06/17 00:45:45;;;;;;;11.47;9.13;;;22.10;57.80;21.60;100993.00;;;;5039297;28;20045;-66
2021/06/17 00:48:14;;;;;;;13.32;8.38;;;22.10;58.30;21.60;100989.00;;;;5038281;28;20610;-66
2021/06/17 00:50:48;;;;;;;12.90;9.48;;;22.00;58.30;21.50;100983.00;;;;5038792;28;20068;-66
2021/06/17 00:53:18;;;;;;;10.20;8.85;;;22.00;58.90;21.50;100977.00;;;;5038427;28;20186;-67
2021/06/17 00:55:46;;;;;;;10.40;9.07;;;22.00;58.80;21.50;100982.00;;;;5038751;28;20037;-66
2021/06/17 00:58:13;;;;;;;10.85;8.98;;;22.00;58.90;21.50;100978.00;;;;5039125;28;20048;-67
2021/06/17 01:00:40;;;;;;;10.32;8.73;;;21.90;59.10;21.50;100975.00;;;;5036410;28;20048;-67
2021/06/17 01:03:07;;;;;;;8.70;7.80;;;21.90;59.10;21.50;100971.00;;;;5038441;28;20551;-67
2021/06/17 01:05:33;;;;;;;;;;;21.90;59.00;21.30;100974.00;;;;5038531;28;20067;-67
2021/06/17 01:08:51;;;;;;;11.05;7.82;;;21.90;59.80;21.40;100966.00;;;;5038187;28;20559;-65
2021/06/17 01:11:50;;;;;;;10.60;7.88;;;21.80;59.60;21.30;100966.00;;;;5035920;28;20045;-66
2021/06/17 01:14:29;;;;;;;10.73;8.25;;;21.80;59.40;21.30;100956.00;;;;5037676;28;20098;-67
2021/06/17 01:17:02;;;;;;;9.80;6.97;;;21.80;59.60;21.30;100950.00;;;;5046758;28;20037;-66
2021/06/17 01:19:31;;;;;;;9.18;8.13;;;21.80;59.50;21.30;100946.00;;;;5038352;28;20058;-66
2021/06/17 01:22:35;;;;;;;13.07;8.43;;;21.80;60.00;21.20;100950.00;;;;5032296;28;20099;-66
2021/06/17 01:25:37;;;;;;;9.00;8.10;;;21.60;59.50;21.20;100944.00;;;;5041415;28;20160;-66
2021/06/17 01:28:12;;;;;;;9.15;8.27;;;21.70;60.80;21.20;100938.00;;;;5042636;28;20037;-66
2021/06/17 01:31:02;;;;;;;9.88;8.23;;;21.60;60.20;21.20;100944.00;;;;5043285;28;20060;-66
2021/06/17 01:33:36;;;;;;;13.13;8.95;;;21.60;60.60;21.20;100950.00;;;;5043984;28;20049;-67
2021/06/17 01:36:18;;;;;;;9.52;7.45;;;21.60;60.80;21.10;100960.00;;;;5041170;28;20036;-66
2021/06/17 01:38:52;;;;;;;10.07;8.20;;;21.60;60.80;21.10;100944.00;;;;5058790;28;20049;-66
2021/06/17 01:41:26;;;;;;;7.65;6.72;;;21.60;60.80;21.10;100952.00;;;;5042080;28;20130;-66
2021/06/17 01:43:54;;;;;;;9.23;7.35;;;21.60;60.60;21.10;100946.00;;;;5040147;28;20041;-66
2021/06/17 01:46:20;;;;;;;9.15;7.68;;;21.50;60.60;21.10;100953.00;;;;5024018;28;20485;-66
2021/06/17 01:48:52;;;;;;;8.90;6.88;;;21.60;60.90;21.10;100956.00;;;;5038351;28;20036;-66
2021/06/17 01:51:24;;;;;;;8.18;6.45;;;21.50;60.70;21.10;100956.00;;;;5022264;28;20047;-66
2021/06/17 01:53:51;;;;;;;8.88;6.60;;;21.50;60.80;21.10;100958.00;;;;5026121;28;20124;-67
2021/06/17 01:56:23;;;;;;;8.32;7.43;;;21.50;60.80;21.10;100957.00;;;;5043680;28;20047;-66
2021/06/17 01:58:56;;;;;;;8.90;7.53;;;21.50;61.00;21.00;100963.00;;;;5043385;28;20047;-66
2021/06/17 02:01:29;;;;;;;12.63;8.00;;;21.50;61.20;21.00;100965.00;;;;5042186;28;20041;-66
2021/06/17 02:03:58;;;;;;;9.48;7.35;;;21.50;61.20;21.00;100961.00;;;;5042513;28;20628;-66
2021/06/17 02:06:26;;;;;;;9.63;8.63;;;21.50;61.30;21.10;100958.00;;;;5053802;28;20539;-67
2021/06/17 02:08:55;;;;;;;12.52;9.45;;;21.50;61.70;21.10;100958.00;;;;5041839;28;20038;-67
2021/06/17 02:11:23;;;;;;;15.15;9.45;;;21.50;62.00;21.20;100953.00;;;;5055726;28;20037;-67
2021/06/17 02:13:52;;;;;;;13.80;9.48;;;21.50;62.20;21.20;100958.00;;;;5038386;28;20044;-67
2021/06/17 02:16:19;;;;;;;12.52;9.65;;;21.60;62.60;21.30;100962.00;;;;5041162;28;20048;-67
2021/06/17 02:18:48;;;;;;;11.55;9.88;;;21.60;62.20;21.40;100961.00;;;;5056119;28;20041;-67
2021/06/17 02:21:15;;;;;;;15.15;9.93;;;21.70;62.60;21.50;100954.00;;;;5039491;28;20045;-66
2021/06/17 02:23:53;;;;;;;12.63;10.02;;;21.80;62.50;21.60;100959.00;;;;5039444;28;20136;-66
2021/06/17 02:26:18;;;;;;;;;;;21.90;62.50;21.60;100960.00;;;;5030667;28;20492;-66
2021/06/17 02:28:47;;;;;;;15.50;10.43;;;22.00;63.40;21.80;100959.00;;;;5039736;28;19967;-67
2021/06/17 02:31:18;;;;;;;13.50;10.45;;;22.10;62.10;21.80;100950.00;;;;5039314;28;20039;-66
2021/06/17 02:33:48;;;;;;;15.20;11.02;;;22.10;63.00;21.90;100957.00;;;;5023963;28;20080;-65
2021/06/17 02:36:14;;;;;;;13.70;10.88;;;22.20;61.90;21.90;100949.00;;;;5037742;28;20080;-67
2021/06/17 02:38:43;;;;;;;11.98;10.68;;;22.20;61.80;21.90;100948.00;;;;5038876;28;20633;-66
2021/06/17 02:41:13;;;;;;;13.57;10.77;;;22.30;62.00;21.90;100956.00;;;;5036887;28;20079;-66
2021/06/17 02:43:44;;;;;;;15.15;11.73;;;22.30;62.00;22.00;100952.00;;;;5039901;28;20048;-66
2021/06/17 02:46:10;;;;;;;14.55;10.88;;;22.30;62.00;22.00;100947.00;;;;5039362;28;20048;-66
2021/06/17 02:48:36;;;;;;;13.38;11.15;;;22.30;62.30;22.00;100951.00;;;;5043100;28;20703;-67
2021/06/17 02:51:03;;;;;;;16.33;11.10;;;22.40;61.80;22.00;100953.00;;;;5040141;28;20037;-67
2021/06/17 02:53:30;;;;;;;16.80;11.38;;;22.30;62.00;22.00;100937.00;;;;5042704;28;20148;-67
2021/06/17 02:55:58;;;;;;;18.77;12.55;;;22.40;62.20;22.00;100938.00;;;;5037998;28;20121;-67
2021/06/17 02:59:09;;;;;;;16.80;12.93;;;22.40;62.30;22.00;100942.00;;;;5038252;28;20045;-67
2021/06/17 03:02:00;;;;;;;15.15;12.07;;;22.40;62.50;22.00;100945.00;;;;5038513;28;20132;-67
2021/06/17 03:04:33;;;;;;;16.75;12.70;;;22.40;62.40;22.00;100936.00;;;;5038325;28;20065;-67
2021/06/17 03:07:01;;;;;;;22.52;12.75;;;22.40;62.40;22.10;100930.00;;;;5041093;28;20233;-67
2021/06/17 03:09:47;;;;;;;14.02;11.82;;;22.40;62.40;22.10;100933.00;;;;5041450;28;20120;-67
2021/06/17 03:12:16;;;;;;;20.40;12.20;;;22.40;62.50;22.10;100937.00;;;;5033395;28;20047;-67
2021/06/17 03:14:46;;;;;;;14.00;12.50;;;22.50;62.60;22.10;100938.00;;;;5038151;28;20064;-67
2021/06/17 03:17:14;;;;;;;13.63;11.85;;;22.40;62.60;22.10;100941.00;;;;5039946;28;20066;-67
2021/06/17 03:19:42;;;;;;;16.83;12.20;;;22.50;62.50;22.10;100940.00;;;;5043293;28;20146;-67
2021/06/17 03:22:12;;;;;;;18.30;12.43;;;22.40;62.60;22.10;100950.00;;;;5041201;28;20053;-67
2021/06/17 03:24:43;;;;;;;14.95;13.35;;;22.50;62.90;22.10;100937.00;;;;5038195;28;20053;-66
2021/06/17 03:27:10;;;;;;;13.45;11.75;;;22.50;62.90;22.10;100944.00;;;;5036902;28;20037;-67
2021/06/17 03:29:43;;;;;;;;;;;22.40;62.90;22.00;100939.00;;;;5034119;28;20131;-67
2021/06/17 03:32:11;;;;;;;21.02;13.48;;;22.40;63.30;22.00;100936.00;;;;5051360;28;20470;-66
2021/06/17 03:34:40;;;;;;;16.25;13.27;;;22.40;63.00;22.00;100936.00;;;;5023837;28;20458;-66
2021/06/17 03:37:07;;;;;;;14.45;12.23;;;22.40;63.20;22.00;100934.00;;;;5036246;28;20036;-66
2021/06/17 03:39:34;;;;;;;19.25;12.88;;;22.40;63.20;22.00;100925.00;;;;5040551;28;20049;-66
2021/06/17 03:42:02;;;;;;;14.82;13.10;;;22.30;63.30;21.90;100933.00;;;;5041019;28;20218;-67
2021/06/17 03:44:30;;;;;;;16.23;13.32;;;22.30;63.50;21.90;100931.00;;;;5040601;28;20053;-67
2021/06/17 03:46:57;;;;;;;14.90;13.20;;;22.30;63.50;21.90;100929.00;;;;5040347;28;20037;-66
2021/06/17 03:49:24;;;;;;;17.63;13.05;;;22.30;63.60;21.90;100924.00;;;;5037257;28;20175;-67
2021/06/17 03:51:51;;;;;;;15.50;12.32;;;22.30;63.70;21.90;100924.00;;;;5040366;28;20154;-67
2021/06/17 03:54:25;;;;;;;15.85;12.38;;;22.30;63.70;21.90;100932.00;;;;5032679;28;20045;-67
2021/06/17 03:56:58;;;;;;;17.15;12.95;;;22.30;63.80;21.90;100933.00;;;;5008470;28;20683;-67
2021/06/17 03:59:29;;;;;;;18.80;13.35;;;22.20;63.90;21.90;100936.00;;;;5032906;28;20179;-66
2021/06/17 04:01:56;;;;;;;18.63;13.38;;;22.20;64.00;21.90;100930.00;;;;5040063;28;20524;-67
2021/06/17 04:04:22;;;;;;;17.50;13.15;;;22.20;64.10;21.90;100939.00;;;;5038374;28;20040;-67
2021/06/17 04:06:53;;;;;;;17.67;12.65;;;22.20;63.80;21.90;100944.00;;;;5039885;28;20223;-66
2021/06/17 04:09:28;;;;;;;16.73;12.45;;;22.30;64.10;21.90;100937.00;;;;5037111;28;20262;-66
2021/06/17 04:12:00;;;;;;;18.20;12.20;;;22.30;63.90;21.90;100940.00;;;;5040783;28;20047;-65
2021/06/17 04:14:28;;;;;;;15.50;12.68;;;22.30;64.20;22.00;100942.00;;;;5040188;28;20510;-66
2021/06/17 04:16:55;;;;;;;13.82;12.05;;;22.30;63.80;22.00;100928.00;;;;5035536;28;20547;-66
2021/06/17 04:19:23;;;;;;;;;;;22.30;63.80;21.90;100934.00;;;;5032609;28;20045;-66
2021/06/17 04:21:52;;;;;;;16.00;11.95;;;22.30;64.70;22.00;100939.00;;;;5039566;28;19920;-66
2021/06/17 04:24:23;;;;;;;13.57;11.60;;;22.30;63.60;22.00;100942.00;;;;5039993;28;20547;-66
2021/06/17 04:26:53;;;;;;;15.85;11.48;;;22.30;63.50;22.00;100938.00;;;;5035349;28;20071;-66
2021/06/17 04:29:21;;;;;;;15.48;11.38;;;22.40;63.40;22.00;100943.00;;;;5054227;28;20116;-66
2021/06/17 04:31:53;;;;;;;13.65;11.07;;;22.40;62.90;22.10;100945.00;;;;5024227;28;20041;-66
2021/06/17 04:34:20;;;;;;;20.05;12.20;;;22.40;63.40;22.10;100945.00;;;;5037478;28;20075;-66
2021/06/17 04:36:47;;;;;;;15.30;11.50;;;22.50;63.40;22.20;100941.00;;;;5054299;28;20048;-66
2021/06/17 04:39:14;;;;;;;13.13;11.18;;;22.50;63.20;22.20;100952.00;;;;5020909;28;20029;-66
2021/06/17 04:41:43;;;;;;;13.95;11.10;;;22.50;63.10;22.30;100949.00;;;;5039791;28;20052;-67
2021/06/17 04:44:10;;;;;;;13.90;10.63;;;22.60;63.10;22.40;100940.00;;;;5035986;28;20033;-66
2021/06/17 04:46:36;;;;;;;;;;;22.60;63.10;22.30;100945.00;;;;5039118;28;20782;-66
2021/06/17 04:49:03;;;;;;;15.65;9.75;;;22.70;63.40;22.50;100949.00;;;;5035638;28;20054;-67
2021/06/17 04:51:35;;;;;;;13.10;10.05;;;22.70;62.50;22.60;100948.00;;;;5039539;28;20056;-66
2021/06/17 04:54:00;;;;;;;15.20;10.93;;;22.90;62.50;22.80;100957.00;;;;5038014;28;20072;-66
2021/06/17 04:56:26;;;;;;;14.10;10.13;;;23.00;62.40;22.90;100950.00;;;;5034165;28;20174;-67
2021/06/17 04:58:53;;;;;;;13.53;10.43;;;23.00;61.90;23.00;100961.00;;;;5039805;28;20045;-66
2021/06/17 05:01:18;;;;;;;13.77;10.52;;;23.20;61.70;23.20;100957.00;;;;5052848;28;20407;-67
2021/06/17 05:03:46;;;;;;;11.83;10.10;;;23.30;61.50;23.30;100957.00;;;;5038669;28;20521;-67
2021/06/17 05:06:14;;;;;;;13.60;10.68;;;23.40;61.10;23.40;100965.00;;;;5015684;28;20052;-67
2021/06/17 05:11:25;;;;;;;15.38;10.00;;;23.60;60.70;23.70;100968.00;;;;5036548;28;20102;-66
2021/06/17 05:13:52;;;;;;;14.27;10.05;;;23.70;60.50;23.70;100961.00;;;;5037124;28;20095;-67
2021/06/17 05:16:18;;;;;;;16.88;10.82;;;23.90;60.10;23.80;100964.00;;;;5019117;28;20411;-67
2021/06/17 05:18:44;;;;;;;11.75;10.45;;;23.90;59.90;23.90;100974.00;;;;5039477;28;20156;-67
2021/06/17 05:21:12;;;;;;;14.80;10.20;;;24.10;59.80;24.00;100969.00;;;;5033412;28;20107;-68
2021/06/17 05:23:39;;;;;;;13.90;10.15;;;24.10;59.60;24.10;100977.00;;;;5038968;28;20041;-69
2021/06/17 05:26:07;;;;;;;13.65;10.02;;;24.20;59.30;24.20;100964.00;;;;5015590;28;20050;-69
2021/06/17 05:28:33;;;;;;;12.38;9.23;;;24.30;59.00;24.30;100957.00;;;;5021538;28;20041;-68
2021/06/17 05:31:03;;;;;;;10.98;9.10;;;24.40;57.40;24.30;100961.00;;;;5034404;28;20049;-67
2021/06/17 05:33:31;;;;;;;14.70;9.93;;;24.40;58.70;24.30;100950.00;;;;5033908;28;20056;-67
2021/06/17 05:35:59;;;;;;;13.93;9.65;;;24.50;58.80;24.30;100959.00;;;;5052123;28;20049;-66
2021/06/17 05:38:26;;;;;;;12.45;8.93;;;24.50;58.80;24.30;100959.00;;;;5033808;28;20099;-64
2021/06/17 05:40:52;;;;;;;12.18;9.57;;;24.50;58.80;24.40;100955.00;;;;5036472;28;20033;-66
2021/06/17 05:43:20;;;;;;;14.75;10.10;;;24.60;58.80;24.40;100966.00;;;;5036940;28;20041;-66
2021/06/17 05:45:45;;;;;;;13.23;9.70;;;24.60;58.70;24.50;100967.00;;;;5039707;28;20039;-66
2021/06/17 05:48:12;;;;;;;10.37;9.30;;;24.70;58.70;24.60;100977.00;;;;5032266;28;20465;-66
2021/06/17 05:50:39;;;;;;;13.93;10.88;;;24.70;58.60;24.60;100979.00;;;;5018656;28;20300;-66
2021/06/17 05:53:05;;;;;;;13.50;9.93;;;24.70;58.50;24.50;100977.00;;;;5037109;28;20044;-67
2021/06/17 05:55:32;;;;;;;13.63;9.80;;;24.70;58.60;24.50;100978.00;;;;5036194;28;20049;-67
2021/06/17 05:57:57;;;;;;;;;;;24.70;58.60;24.40;100985.00;;;;5037037;28;20044;-66
2021/06/17 06:00:24;;;;;;;15.13;9.95;;;24.70;57.70;24.50;100985.00;;;;5034899;28;19928;-65
2021/06/17 06:02:49;;;;;;;11.38;9.88;;;24.60;58.70;24.50;100982.00;;;;5053343;28;20064;-66
2021/06/17 06:05:16;;;;;;;12.37;10.47;;;24.70;58.60;24.70;100980.00;;;;5039406;28;20124;-66
2021/06/17 06:07:42;;;;;;;13.15;10.02;;;24.80;58.70;24.80;100978.00;;;;5020103;28;20303;-69
2021/06/17 06:10:10;;;;;;;11.05;9.38;;;24.90;58.70;24.90;100977.00;;;;5039307;28;20114;-69
2021/06/17 06:12:36;;;;;;;18.17;10.23;;;25.00;58.50;25.00;100983.00;;;;5054759;28;20496;-69
2021/06/17 06:15:04;;;;;;;14.77;9.43;;;25.10;58.30;25.10;100979.00;;;;5056693;28;20075;-69
2021/06/17 06:17:30;;;;;;;16.92;10.15;;;25.20;58.00;25.30;100988.00;;;;5042109;28;20049;-68
2021/06/17 06:19:57;;;;;;;14.07;10.20;;;25.30;57.50;25.40;100986.00;;;;5039405;28;20029;-68
2021/06/17 06:22:22;;;;;;;;;;;25.40;57.30;25.30;100985.00;;;;5039065;28;20049;-69
2021/06/17 06:24:49;;;;;;;13.98;9.70;;;25.50;56.00;25.50;100981.00;;;;5041279;28;19939;-69
2021/06/17 06:27:15;;;;;;;10.52;9.43;;;25.50;57.40;25.60;100984.00;;;;5042917;28;20783;-70
2021/06/17 06:29:41;;;;;;;14.73;10.38;;;25.60;57.00;25.70;100986.00;;;;5043968;28;20120;-70
2021/06/17 06:32:09;;;;;;;16.75;10.40;;;25.70;55.40;25.80;100993.00;;;;5042100;28;20122;-70
2021/06/17 06:34:36;;;;;;;14.25;9.27;;;25.80;56.40;25.90;100992.00;;;;5042929;28;20037;-70
2021/06/17 06:37:02;;;;;;;13.95;8.73;;;25.80;56.10;26.00;100991.00;;;;5053693;28;20041;-66
2021/06/17 06:39:28;;;;;;;11.32;9.00;;;26.00;55.80;26.20;100994.00;;;;5042954;28;20073;-66
2021/06/17 06:41:54;;;;;;;12.20;8.30;;;26.20;55.70;26.50;100997.00;;;;5040055;28;20060;-66
2021/06/17 06:44:22;;;;;;;10.10;8.27;;;26.40;55.20;26.70;100995.00;;;;5040712;28;20199;-66
2021/06/17 06:46:50;;;;;;;17.15;8.55;;;26.60;54.70;26.90;100986.00;;;;5040875;28;20048;-67
2021/06/17 06:49:17;;;;;;;11.48;7.22;;;26.80;54.40;27.10;100995.00;;;;5037937;28;20564;-67
2021/06/17 06:51:43;;;;;;;11.43;7.25;;;27.00;54.00;27.30;100995.00;;;;5039062;28;20503;-67
2021/06/17 06:54:10;;;;;;;10.38;8.07;;;27.20;53.30;27.40;101000.00;;;;5049412;28;20041;-68
2021/06/17 06:56:38;;;;;;;12.27;7.15;;;27.30;53.40;27.40;100991.00;;;;5036206;28;20061;-67
2021/06/17 06:59:05;;;;;;;11.10;6.90;;;27.40;52.90;27.40;100996.00;;;;5021103;28;20045;-67
2021/06/17 07:01:32;;;;;;;10.52;6.80;;;27.40;52.90;27.40;101000.00;;;;5035415;28;20045;-67
2021/06/17 07:03:58;;;;;;;8.45;6.65;;;27.40;52.30;27.30;101009.00;;;;5038842;28;20595;-67
2021/06/17 07:06:24;;;;;;;10.23;6.47;;;27.40;53.40;27.20;101011.00;;;;5038226;28;20454;-67
2021/06/17 07:08:50;;;;;;;13.68;7.47;;;27.30;52.50;27.10;101009.00;;;;5038776;28;20033;-66
2021/06/17 07:11:16;;;;;;;8.43;6.70;;;27.30;52.60;27.10;101010.00;;;;5040232;28;20041;-67
2021/06/17 07:13:42;;;;;;;7.60;6.15;;;27.20;52.70;27.10;101003.00;;;;5043135;28;20551;-66
2021/06/17 07:16:08;;;;;;;11.98;6.78;;;27.20;52.70;27.20;100996.00;;;;5038278;28;20045;-67
2021/06/17 07:18:34;;;;;;;7.47;5.97;;;27.30;52.70;27.30;101008.00;;;;5042833;28;20462;-67
2021/06/17 07:21:01;;;;;;;7.07;6.38;;;27.30;52.50;27.30;101014.00;;;;5038837;28;20099;-67
2021/06/17 07:23:28;;;;;;;12.02;6.47;;;27.30;52.20;27.30;101014.00;;;;5040089;28;20051;-67
2021/06/17 07:25:55;;;;;;;13.40;6.72;;;27.30;53.30;27.20;101030.00;;;;5041814;28;20060;-67
2021/06/17 07:28:21;;;;;;;6.25;5.60;;;27.30;52.20;27.30;101030.00;;;;5053644;28;20032;-67
2021/06/17 07:30:47;;;;;;;10.85;6.65;;;27.40;49.50;27.50;101036.00;;;;5038452;28;20415;-66
2021/06/17 07:33:13;;;;;;;8.77;5.90;;;27.50;51.60;27.70;101040.00;;;;5055707;28;20052;-66
2021/06/17 07:35:39;;;;;;;10.13;6.00;;;27.60;51.50;27.90;101044.00;;;;5040642;28;20049;-66
2021/06/17 07:38:05;;;;;;;14.02;6.78;;;27.80;51.00;28.00;101038.00;;;;5023797;28;20508;-67
2021/06/17 07:40:32;;;;;;;11.93;6.50;;;27.90;50.70;28.10;101044.00;;;;5039825;28;20049;-66
2021/06/17 07:42:57;;;;;;;;;;;28.00;50.20;28.20;101043.00;;;;5042212;28;20033;-66
2021/06/17 07:45:29;;;;;;;8.57;5.93;;;28.20;48.90;28.40;101037.00;;;;5037672;28;19935;-66
2021/06/17 07:47:55;;;;;;;12.95;6.35;;;28.30;49.70;28.60;101045.00;;;;5019905;28;20045;-67
2021/06/17 07:50:21;;;;;;;13.18;5.90;;;28.50;49.20;28.70;101032.00;;;;5040836;28;20114;-67
2021/06/17 07:52:47;;;;;;;6.80;5.05;;;28.60;48.90;28.90;101031.00;;;;5038811;28;20041;-67
2021/06/17 07:55:13;;;;;;;10.15;6.03;;;28.70;48.00;29.00;101024.00;;;;5039485;28;20043;-66
2021/06/17 07:57:39;;;;;;;9.90;4.95;;;28.90;47.40;29.10;101025.00;;;;5022659;28;20471;-67
2021/06/17 08:00:07;;;;;;;12.32;4.53;;;29.00;47.10;29.20;101024.00;;;;5037781;28;21148;-67
2021/06/17 08:02:35;;;;;;;11.93;5.38;;;29.10;46.40;29.30;101029.00;;;;5039508;28;20037;-67
2021/06/17 08:05:01;;;;;;;10.88;4.85;;;29.20;46.20;29.50;101026.00;;;;5037030;28;20573;-67
2021/06/17 08:07:27;;;;;;;6.93;4.75;;;29.40;45.90;29.70;101012.00;;;;5035475;28;20064;-68
2021/06/17 08:09:53;;;;;;;7.95;4.10;;;29.50;45.70;29.80;101020.00;;;;5042855;28;20061;-67
2021/06/17 08:12:20;;;;;;;14.20;4.00;;;29.60;45.20;30.00;101019.00;;;;5039264;28;20119;-68
2021/06/17 08:14:46;;;;;;;8.85;4.53;;;29.80;45.00;30.10;101027.00;;;;5038207;28;20581;-66
2021/06/17 08:17:12;;;;;;;10.55;4.50;;;29.90;44.70;30.30;101045.00;;;;5036937;28;20041;-68
2021/06/17 08:19:38;;;;;;;12.10;4.80;;;30.10;44.30;30.40;101041.00;;;;5040959;28;21000;-65
2021/06/17 08:22:10;;;;;;;6.63;3.78;;;30.20;44.00;30.50;101044.00;;;;5040553;28;20045;-65
2021/06/17 08:24:43;;;;;;;9.07;4.10;;;30.30;43.90;30.50;101042.00;;;;5036790;28;20195;-65
2021/06/17 08:27:10;;;;;;;9.30;3.95;;;30.40;43.30;30.60;101035.00;;;;5040183;28;20416;-65
2021/06/17 08:29:36;;;;;;;10.38;4.05;;;30.50;43.10;30.70;101030.00;;;;5039389;28;20123;-66
2021/06/17 08:32:03;;;;;;;6.25;3.53;;;30.50;41.50;30.80;101031.00;;;;5037761;28;20044;-64
2021/06/17 08:34:30;;;;;;;8.18;3.67;;;30.60;42.40;30.90;101025.00;;;;5037277;28;20053;-64
2021/06/17 08:36:56;;;;;;;;;;;30.70;42.40;30.80;101019.00;;;;5038429;28;20048;-64
2021/06/17 08:39:23;;;;;;;5.38;3.60;;;30.80;43.20;31.00;101020.00;;;;5040630;28;19967;-65
2021/06/17 08:41:50;;;;;;;5.18;3.45;;;30.90;42.80;31.10;101012.00;;;;5038517;28;20075;-65
2021/06/17 08:44:16;;;;;;;6.25;3.25;;;31.00;42.10;31.20;101009.00;;;;5037512;28;20044;-65
2021/06/17 08:46:42;;;;;;;6.28;3.50;;;31.10;41.60;31.30;101003.00;;;;5031945;28;20455;-65
2021/06/17 08:49:09;;;;;;;6.80;3.70;;;31.20;41.60;31.40;101003.00;;;;5039332;28;20399;-65
2021/06/17 08:51:39;;;;;;;13.10;6.78;;;31.30;41.50;31.50;100995.00;;;;5038105;28;20111;-65
2021/06/17 08:54:06;;;;;;;6.43;3.28;;;31.30;40.90;31.60;100992.00;;;;5039971;28;20267;-65
2021/06/17 08:56:33;;;;;;;6.38;3.50;;;31.40;40.70;31.70;100993.00;;;;5037517;28;20056;-66
2021/06/17 08:58:59;;;;;;;5.57;3.30;;;31.60;40.60;31.90;100985.00;;;;5040067;28;20069;-65
2021/06/17 09:01:25;;;;;;;5.90;3.25;;;31.60;40.50;32.00;100979.00;;;;5039400;28;20084;-65
2021/06/17 09:03:52;;;;;;;5.78;3.70;;;31.80;40.50;32.00;100975.00;;;;5035515;28;20067;-65
2021/06/17 09:06:23;;;;;;;5.50;3.60;;;31.90;39.80;31.90;100974.00;;;;5038276;28;20048;-65
2021/06/17 09:09:07;;;;;;;4.82;3.05;;;31.80;39.70;31.60;100967.00;;;;5036856;28;20045;-65
2021/06/17 09:11:33;;;;;;;6.65;3.78;;;31.70;38.90;31.50;100959.00;;;;5037338;28;20037;-65
2021/06/17 09:14:20;;;;;;;6.72;3.17;;;31.60;39.50;31.50;100960.00;;;;5038254;28;20052;-64
2021/06/17 09:17:07;;;;;;;6.80;3.15;;;31.60;39.40;31.70;100964.00;;;;5036189;28;20049;-64
2021/06/17 09:19:46;;;;;;;5.90;3.17;;;31.70;39.60;31.90;100952.00;;;;5037783;28;20069;-65
2021/06/17 09:22:18;;;;;;;7.63;3.58;;;31.80;40.60;32.00;100952.00;;;;5037482;28;20571;-65
2021/06/17 09:24:50;;;;;;;7.22;3.53;;;31.90;39.20;32.20;100944.00;;;;5038523;28;20125;-65
2021/06/17 09:27:39;;;;;;;7.95;3.28;;;32.10;38.70;32.30;100951.00;;;;5040247;28;20041;-65
2021/06/17 09:30:10;;;;;;;5.47;2.92;;;32.30;38.10;32.50;100945.00;;;;5035602;28;20053;-65
2021/06/17 09:32:39;;;;;;;8.10;3.33;;;32.30;38.50;32.60;100943.00;;;;5038794;28;20060;-62
2021/06/17 09:35:18;;;;;;;4.72;3.50;;;32.40;38.80;32.60;100950.00;;;;5038155;28;20186;-63
2021/06/17 09:37:44;;;;;;;9.60;3.70;;;32.50;38.00;32.80;100949.00;;;;5034851;28;20055;-63
2021/06/17 09:40:45;;;;;;;8.60;3.50;;;32.60;38.00;32.80;100949.00;;;;5035538;28;20052;-62
2021/06/17 09:43:13;;;;;;;6.68;3.30;;;32.70;36.30;32.90;100956.00;;;;5033967;28;20060;-63
2021/06/17 09:46:00;;;;;;;8.45;2.90;;;32.80;37.50;33.00;100957.00;;;;5041437;28;20037;-62
2021/06/17 09:48:34;;;;;;;4.68;3.40;;;32.90;37.50;33.10;100949.00;;;;5040327;28;20108;-63
2021/06/17 09:51:37;;;;;;;6.80;2.83;;;33.00;37.10;33.20;100939.00;;;;5042565;28;20117;-62
2021/06/17 09:54:25;;;;;;;5.95;3.10;;;33.10;36.20;33.30;100932.00;;;;5034653;28;20048;-62
2021/06/17 09:57:03;;;;;;;6.43;3.25;;;33.20;35.50;33.40;100929.00;;;;5041457;28;20091;-62
2021/06/17 09:59:44;;;;;;;8.07;3.50;;;33.30;36.90;33.50;100915.00;;;;5044003;28;20045;-62
2021/06/17 10:02:17;;;;;;;5.90;3.40;;;33.40;36.70;33.20;100916.00;;;;5038393;28;20118;-63
2021/06/17 10:04:43;;;;;;;6.55;3.50;;;33.20;36.50;33.10;100918.00;;;;5042014;28;20041;-62
2021/06/17 10:07:09;;;;;;;8.43;4.05;;;33.10;36.80;33.00;100918.00;;;;5019429;28;20527;-63
2021/06/17 10:09:36;;;;;;;6.78;3.83;;;33.10;37.00;33.10;100918.00;;;;5049183;28;20049;-62
2021/06/17 10:12:04;;;;;;;13.77;3.97;;;33.10;37.40;33.20;100930.00;;;;5041179;28;20049;-63
2021/06/17 10:14:31;;;;;;;6.30;3.83;;;33.10;36.50;33.30;100935.00;;;;5058653;28;20145;-62
2021/06/17 10:16:59;;;;;;;6.85;3.72;;;33.20;36.60;33.40;100939.00;;;;5042748;28;20041;-62
2021/06/17 10:19:26;;;;;;;5.30;3.50;;;33.30;36.40;33.60;100943.00;;;;5038485;28;20068;-62
2021/06/17 10:21:52;;;;;;;9.45;3.83;;;33.50;36.50;33.80;100945.00;;;;5038637;28;20083;-62
2021/06/17 10:24:21;;;;;;;8.07;4.07;;;33.60;37.20;33.90;100941.00;;;;5039438;28;20575;-62
2021/06/17 10:26:57;;;;;;;5.03;3.78;;;33.70;35.80;34.00;100937.00;;;;5056142;28;20041;-62
2021/06/17 10:29:39;;;;;;;7.97;3.38;;;33.80;35.10;34.00;100941.00;;;;5055804;28;20075;-62
2021/06/17 10:32:09;;;;;;;8.88;3.78;;;33.90;34.00;34.20;100943.00;;;;5038702;28;20511;-62
2021/06/17 10:34:41;;;;;;;9.93;4.13;;;34.00;35.20;34.30;100943.00;;;;5037898;28;20039;-63
2021/06/17 10:37:30;;;;;;;7.00;4.32;;;34.10;33.90;34.30;100944.00;;;;5040094;28;20157;-63
2021/06/17 10:40:16;;;;;;;10.20;4.13;;;34.20;34.40;34.50;100939.00;;;;5040019;28;20037;-63
2021/06/17 10:42:46;;;;;;;5.40;4.30;;;34.30;34.80;34.70;100949.00;;;;5040233;28;20037;-62
2021/06/17 10:45:53;;;;;;;6.25;4.05;;;34.50;34.50;34.80;100953.00;;;;5055824;28;20190;-62
2021/06/17 10:48:25;;;;;;;6.95;3.88;;;34.70;33.20;34.80;100959.00;;;;5039080;28;20040;-63
2021/06/17 10:51:07;;;;;;;5.55;4.20;;;34.70;34.00;34.80;100966.00;;;;5040594;28;20621;-62
2021/06/17 10:53:40;;;;;;;7.70;4.05;;;34.70;33.20;34.70;100963.00;;;;5041224;28;20052;-63
2021/06/17 10:56:26;;;;;;;4.65;3.72;;;34.60;33.90;34.70;100963.00;;;;5043373;28;20221;-63
2021/06/17 10:58:56;;;;;;;8.23;4.17;;;34.60;33.30;34.70;100966.00;;;;5055102;28;20052;-63